createdAt,value
2018-05-03T00:00:29.523Z,97307.55
2018-05-03T00:02:57.350Z,97305.27
2018-05-03T00:05:24.956Z,97310.73
2018-05-03T00:07:52.578Z,97317.09
2018-05-03T00:10:20.202Z,97319.09
2018-05-03T00:12:47.790Z,97320.33
2018-05-03T00:15:15.527Z,97321.69
2018-05-03T00:17:43.122Z,97325.41
2018-05-03T00:20:10.715Z,97329.94
2018-05-03T00:22:38.328Z,97334.35
2018-05-03T00:25:05.914Z,97338.58
2018-05-03T00:27:33.558Z,97335.34
2018-05-03T00:30:01.162Z,97345.23
2018-05-03T00:32:28.768Z,97340.63
2018-05-03T00:34:56.378Z,97332.38
2018-05-03T00:37:23.970Z,97332.67
2018-05-03T00:39:51.833Z,97331.66
2018-05-03T00:42:19.422Z,97326.91
2018-05-03T00:44:47.013Z,97325.23
2018-05-03T00:47:14.639Z,97325.02
2018-05-03T00:49:42.265Z,97327.71
2018-05-03T00:52:10.056Z,97319.27
2018-05-03T00:54:48.665Z,97306.17
2018-05-03T00:57:16.372Z,97299.94
2018-05-03T00:59:43.980Z,97299.70
2018-05-03T01:02:11.723Z,97299.68
2018-05-03T01:04:39.356Z,97298.36
2018-05-03T01:07:06.970Z,97295.90
2018-05-03T01:09:35.391Z,97300.98
2018-05-03T01:12:02.988Z,97303.73
2018-05-03T01:14:30.583Z,97312.09
2018-05-03T01:16:58.201Z,97311.30
2018-05-03T01:19:25.802Z,97318.41
2018-05-03T01:21:53.462Z,97327.83
2018-05-03T01:24:21.047Z,97323.51
2018-05-03T01:26:48.670Z,97326.87
2018-05-03T01:29:16.298Z,97324.66
2018-05-03T01:31:43.890Z,97318.20
2018-05-03T01:34:11.883Z,97317.48
2018-05-03T01:36:39.478Z,97319.74
2018-05-03T01:39:07.091Z,97328.25
2018-05-03T01:41:34.778Z,97323.64
2018-05-03T01:44:02.389Z,97325.73
2018-05-03T01:46:30.003Z,97327.78
2018-05-03T01:48:57.628Z,97340.00
2018-05-03T01:51:25.228Z,97349.78
2018-05-03T01:53:52.871Z,97368.94
2018-05-03T01:56:20.481Z,97375.77
2018-05-03T01:58:48.073Z,97381.91
2018-05-03T02:01:15.865Z,97376.73
2018-05-03T02:03:43.475Z,97377.77
2018-05-03T02:06:11.070Z,97374.76
2018-05-03T02:08:38.682Z,97380.03
2018-05-03T02:11:06.293Z,97375.14
2018-05-03T02:13:34.174Z,97386.39
2018-05-03T02:16:01.786Z,97379.56
2018-05-03T03:44:15.530Z,97387.02
2018-05-03T03:46:43.156Z,97395.09
2018-05-03T03:49:10.903Z,97395.84
2018-05-03T03:51:38.500Z,97404.91
2018-05-03T03:54:06.091Z,97403.95
2018-05-03T03:56:33.793Z,97410.50
2018-05-03T03:59:01.494Z,97412.74
2018-05-03T04:01:29.310Z,97412.02
2018-05-03T04:03:56.906Z,97410.20
2018-05-03T04:06:24.506Z,97414.81
2018-05-03T04:08:52.134Z,97418.92
2018-05-03T04:11:19.726Z,97420.22
2018-05-03T04:13:47.529Z,97412.44
2018-05-03T04:16:15.133Z,97417.96
2018-05-03T04:18:54.926Z,97420.99
2018-05-03T04:21:34.345Z,97418.78
2018-05-03T04:24:13.749Z,97417.05
2018-05-03T04:26:41.370Z,97424.30
2018-05-03T04:29:09.143Z,97434.77
2018-05-03T04:31:36.740Z,97439.00
2018-05-03T04:34:04.358Z,97441.82
2018-05-03T04:36:31.998Z,97442.92
2018-05-03T04:38:59.627Z,97440.92
2018-05-03T04:41:27.247Z,97443.47
2018-05-03T04:43:54.871Z,97451.59
2018-05-03T04:46:22.472Z,97452.33
2018-05-03T04:48:50.095Z,97456.10
2018-05-03T04:51:17.684Z,97456.59
2018-05-03T04:53:45.285Z,97453.34
2018-05-03T04:56:13.111Z,97458.53
2018-05-03T04:58:40.712Z,97458.59
2018-05-03T05:01:08.340Z,97460.12
2018-05-03T05:03:36.018Z,97465.59
2018-05-03T05:06:03.629Z,97467.28
2018-05-03T05:08:31.227Z,97476.55
2018-05-03T05:10:59.200Z,97481.49
2018-05-03T05:13:26.810Z,97481.50
2018-05-03T05:15:54.470Z,97483.41
2018-05-03T05:18:22.070Z,97488.48
2018-05-03T05:20:49.666Z,97492.69
2018-05-03T05:23:17.282Z,97503.97
2018-05-03T05:25:44.878Z,97501.89
2018-05-03T05:28:12.771Z,97499.28
2018-05-03T05:30:40.410Z,97511.31
2018-05-03T05:33:08.025Z,97505.27
2018-05-03T05:35:35.809Z,97509.87
2018-05-03T05:38:03.419Z,97506.68
2018-05-03T05:40:31.263Z,97503.67
2018-05-03T05:42:58.891Z,97512.25
2018-05-03T05:45:26.500Z,97512.02
2018-05-03T05:47:54.295Z,97511.81
2018-05-03T05:50:21.904Z,97515.30
2018-05-03T05:52:49.561Z,97520.16
2018-05-03T05:55:17.245Z,97520.53
2018-05-03T05:57:44.855Z,97530.13
2018-05-03T06:00:12.511Z,97532.36
2018-05-03T06:02:40.116Z,97533.45
2018-05-03T06:05:07.866Z,97539.98
2018-05-03T06:07:35.460Z,97546.83
2018-05-03T06:10:03.059Z,97543.46
2018-05-03T06:12:30.682Z,97539.80
2018-05-03T06:14:58.278Z,97542.69
2018-05-03T06:17:25.987Z,97534.51
2018-05-03T06:19:53.586Z,97541.41
2018-05-03T06:22:21.183Z,97536.63
2018-05-03T06:24:48.804Z,97535.59
2018-05-03T06:27:16.411Z,97535.12
2018-05-03T06:29:44.213Z,97540.15
2018-05-03T06:32:11.810Z,97539.42
2018-05-03T06:34:39.403Z,97542.83
2018-05-03T06:37:07.026Z,97538.06
2018-05-03T06:39:34.632Z,97544.41
2018-05-03T06:42:02.516Z,97545.80
2018-05-03T06:44:30.119Z,97545.83
2018-05-03T06:46:57.712Z,97548.16
2018-05-03T06:49:25.632Z,97548.63
2018-05-03T06:51:53.234Z,97552.26
2018-05-03T06:54:21.013Z,97547.05
2018-05-03T06:56:48.616Z,97549.42
2018-05-03T06:59:16.202Z,97550.72
2018-05-03T07:01:43.821Z,97552.86
2018-05-03T07:04:11.467Z,97553.70
2018-05-03T07:06:39.578Z,97552.35
2018-05-03T07:09:07.163Z,97559.03
2018-05-03T07:11:34.771Z,97561.23
2018-05-03T07:14:02.385Z,97565.25
2018-05-03T07:16:29.982Z,97573.45
2018-05-03T07:18:57.613Z,97575.20
2018-05-03T07:21:25.217Z,97579.66
2018-05-03T07:23:52.893Z,97569.48
2018-05-03T07:26:20.478Z,97580.05
2018-05-03T07:28:48.202Z,97569.33
2018-05-03T07:31:16.055Z,97571.47
2018-05-03T07:33:43.650Z,97563.34
2018-05-03T07:36:11.289Z,97570.13
2018-05-03T07:38:38.915Z,97575.98
2018-05-03T07:41:06.521Z,97579.31
2018-05-03T07:43:34.278Z,97573.59
2018-05-03T07:46:01.915Z,97584.46
2018-05-03T07:48:29.597Z,97585.05
2018-05-03T07:50:58.106Z,97577.26
2018-05-03T07:53:31.162Z,97581.42
2018-05-03T07:56:00.419Z,97582.80
2018-05-03T07:58:30.063Z,97588.28
2018-05-03T08:00:58.261Z,97594.98
2018-05-03T08:03:25.921Z,97593.95
2018-05-03T08:05:53.567Z,97592.32
2018-05-03T08:08:21.350Z,97595.95
2018-05-03T08:10:49.238Z,97593.68
2018-05-03T08:13:16.826Z,97586.76
2018-05-03T08:15:44.648Z,97592.98
2018-05-03T08:18:12.240Z,97594.75
2018-05-03T08:20:40.177Z,97598.34
2018-05-03T08:23:07.764Z,97603.03
2018-05-03T08:25:35.369Z,97606.09
2018-05-03T08:28:02.991Z,97603.48
2018-05-03T08:30:30.585Z,97601.55
2018-05-03T08:32:58.580Z,97601.99
2018-05-03T08:35:26.174Z,97601.84
2018-05-03T08:37:53.763Z,97594.19
2018-05-03T08:40:21.382Z,97589.45
2018-05-03T08:42:48.966Z,97601.99
2018-05-03T08:45:16.890Z,97601.06
2018-05-03T08:47:44.478Z,97593.22
2018-05-03T08:50:12.073Z,97600.92
2018-05-03T08:52:39.689Z,97597.16
2018-05-03T08:55:07.295Z,97598.67
2018-05-03T08:57:34.924Z,97596.83
2018-05-03T09:00:02.509Z,97602.47
2018-05-03T09:02:30.103Z,97605.70
2018-05-03T09:04:57.837Z,97606.73
2018-05-03T09:07:25.426Z,97608.56
2018-05-03T09:09:53.138Z,97614.03
2018-05-03T09:12:20.723Z,97616.05
2018-05-03T09:14:48.314Z,97613.07
2018-05-03T09:17:15.925Z,97615.80
2018-05-03T09:19:43.510Z,97611.82
2018-05-03T09:22:11.322Z,97613.42
2018-05-03T09:24:39.138Z,97623.95
2018-05-03T09:27:06.722Z,97616.98
2018-05-03T09:29:34.339Z,97613.80
2018-05-03T09:32:01.921Z,97620.27
2018-05-03T09:34:29.646Z,97621.03
2018-05-03T09:36:57.239Z,97623.22
2018-05-03T09:39:24.827Z,97628.14
2018-05-03T09:41:52.636Z,97638.08
2018-05-03T09:44:20.223Z,97637.99
2018-05-03T09:46:47.844Z,97638.83
2018-05-03T09:49:15.429Z,97642.17
2018-05-03T09:51:43.019Z,97647.73
2018-05-03T09:54:10.741Z,97643.61
2018-05-03T09:56:38.540Z,97643.53
2018-05-03T09:59:06.362Z,97648.58
2018-05-03T10:01:33.954Z,97650.12
2018-05-03T10:04:01.550Z,97646.74
2018-05-03T10:06:29.155Z,97662.57
2018-05-03T10:08:58.414Z,97651.05
2018-05-03T10:11:26.514Z,97655.53
2018-05-03T10:13:54.112Z,97657.16
2018-05-03T10:16:21.705Z,97661.50
2018-05-03T10:18:49.333Z,97661.02
2018-05-03T10:21:16.914Z,97659.45
2018-05-03T10:23:44.541Z,97658.94
2018-05-03T10:26:12.545Z,97670.80
2018-05-03T10:28:40.133Z,97669.20
2018-05-03T10:31:07.808Z,97666.32
2018-05-03T10:33:35.518Z,97651.39
2018-05-03T10:36:03.583Z,97658.50
2018-05-03T10:38:32.879Z,97652.97
2018-05-03T10:41:00.704Z,97650.45
2018-05-03T10:43:29.827Z,97652.15
2018-05-03T10:46:11.211Z,97648.17
2018-05-03T10:48:52.073Z,97648.80
2018-05-03T10:51:32.416Z,97648.87
2018-05-03T10:54:11.551Z,97643.62
2018-05-03T10:56:53.780Z,97637.91
2018-05-03T10:59:23.124Z,97648.13
2018-05-03T11:02:07.594Z,97641.78
2018-05-03T11:04:46.006Z,97642.97
2018-05-03T11:07:16.333Z,97644.99
2018-05-03T11:09:58.491Z,97651.05
2018-05-03T11:12:39.792Z,97643.50
2018-05-03T11:15:18.347Z,97640.68
2018-05-03T11:17:55.237Z,97638.92
2018-05-03T11:20:38.118Z,97636.12
2018-05-03T11:23:13.540Z,97628.53
2018-05-03T11:25:49.933Z,97631.70
2018-05-03T11:28:25.074Z,97625.77
2018-05-03T11:30:53.398Z,97623.13
2018-05-03T11:33:21.000Z,97625.70
2018-05-03T11:35:48.588Z,97621.41
2018-05-03T11:38:16.196Z,97629.84
2018-05-03T11:40:43.786Z,97630.79
2018-05-03T11:43:11.398Z,97635.21
2018-05-03T11:45:38.997Z,97631.45
2018-05-03T11:48:06.618Z,97629.56
2018-05-03T11:50:34.308Z,97629.52
2018-05-03T11:53:01.935Z,97628.55
2018-05-03T11:55:29.519Z,97623.99
2018-05-03T11:57:57.130Z,97627.11
2018-05-03T12:00:24.715Z,97622.66
2018-05-03T12:02:52.337Z,97625.41
2018-05-03T12:05:19.935Z,97623.80
2018-05-03T12:07:47.636Z,97622.49
2018-05-03T12:10:15.258Z,97618.22
2018-05-03T12:12:42.881Z,97622.16
2018-05-03T12:15:10.490Z,97629.64
2018-05-03T12:17:38.083Z,97620.88
2018-05-03T12:20:05.743Z,97614.45
2018-05-03T12:22:33.339Z,97612.72
2018-05-03T12:25:00.968Z,97613.91
2018-05-03T12:27:28.560Z,97613.84
2018-05-03T12:29:56.155Z,97619.73
2018-05-03T12:32:23.773Z,97611.96
2018-05-03T12:34:51.396Z,97619.28
2018-05-03T12:37:19.045Z,97615.92
2018-05-03T12:39:46.643Z,97610.15
2018-05-03T12:42:14.259Z,97610.58
2018-05-03T12:44:41.846Z,97613.16
2018-05-03T12:47:09.471Z,97606.52
2018-05-03T12:49:37.598Z,97612.47
2018-05-03T12:52:05.212Z,97611.21
2018-05-03T12:54:32.818Z,97608.63
2018-05-03T12:57:00.435Z,97603.00
2018-05-03T12:59:28.025Z,97598.69
2018-05-03T13:01:55.651Z,97589.91
2018-05-03T13:04:23.242Z,97590.77
2018-05-03T13:06:50.925Z,97592.50
2018-05-03T13:09:18.515Z,97592.90
2018-05-03T13:11:46.555Z,97590.52
2018-05-03T13:14:14.203Z,97591.23
2018-05-03T13:16:41.754Z,97596.09
2018-05-03T13:19:09.362Z,97591.58
2018-05-03T13:21:37.024Z,97587.99
2018-05-03T13:24:04.646Z,97592.20
2018-05-03T13:26:32.260Z,97589.06
2018-05-03T13:28:59.906Z,97580.39
2018-05-03T13:31:27.494Z,97584.09
2018-05-03T13:33:55.090Z,97583.17
2018-05-03T13:36:22.885Z,97588.83
2018-05-03T13:38:50.504Z,97583.33
2018-05-03T13:41:18.171Z,97584.13
2018-05-03T13:43:45.739Z,97580.10
2018-05-03T13:46:13.371Z,97592.25
2018-05-03T13:48:40.961Z,97585.37
2018-05-03T13:51:08.558Z,97591.22
2018-05-03T13:53:36.175Z,97584.25
2018-05-03T13:56:03.774Z,97587.13
2018-05-03T13:58:31.408Z,97579.20
2018-05-03T14:00:59.017Z,97584.02
2018-05-03T14:03:26.863Z,97584.48
2018-05-03T14:05:54.457Z,97585.56
2018-05-03T14:08:22.114Z,97587.25
2018-05-03T14:10:49.737Z,97582.78
2018-05-03T14:13:17.343Z,97576.22
2018-05-03T14:15:44.968Z,97572.36
2018-05-03T14:18:12.563Z,97583.29
2018-05-03T14:20:40.363Z,97575.71
2018-05-03T14:23:07.958Z,97564.39
2018-05-03T14:25:35.648Z,97564.91
2018-05-03T14:28:04.021Z,97566.98
2018-05-03T14:30:31.610Z,97571.44
2018-05-03T14:32:59.223Z,97572.36
2018-05-03T14:35:26.988Z,97581.11
2018-05-03T14:37:54.576Z,97588.34
2018-05-03T14:40:22.168Z,97586.25
2018-05-03T14:42:49.758Z,97583.66
2018-05-03T14:45:18.174Z,97582.80
2018-05-03T14:47:45.772Z,97589.23
2018-05-03T14:50:13.574Z,97589.19
2018-05-03T14:52:41.158Z,97595.07
2018-05-03T14:55:09.072Z,97593.50
2018-05-03T14:57:36.619Z,97599.00
2018-05-03T15:00:04.334Z,97601.48
2018-05-03T15:02:31.954Z,97600.97
2018-05-03T15:04:59.542Z,97601.08
2018-05-03T15:07:29.397Z,97602.94
2018-05-03T15:09:56.999Z,97605.61
2018-05-03T15:12:24.643Z,97607.51
2018-05-03T15:14:52.839Z,97610.30
2018-05-03T15:17:20.425Z,97610.31
2018-05-03T15:19:48.038Z,97615.40
2018-05-03T15:22:15.657Z,97612.00
2018-05-03T15:24:43.269Z,97609.81
2018-05-03T15:27:10.860Z,97609.36
2018-05-03T15:29:38.885Z,97616.98
2018-05-03T15:32:06.478Z,97615.58
2018-05-03T15:34:34.070Z,97616.14
2018-05-03T15:37:01.703Z,97616.22
2018-05-03T15:39:29.299Z,97622.98
2018-05-03T15:41:56.911Z,97615.81
2018-05-03T15:44:24.508Z,97618.22
2018-05-03T15:46:52.476Z,97630.91
2018-05-03T15:49:20.074Z,97624.57
2018-05-03T15:51:47.668Z,97622.39
2018-05-03T15:54:15.281Z,97628.49
2018-05-03T15:56:42.876Z,97627.16
2018-05-03T15:59:10.491Z,97627.38
2018-05-03T16:01:38.162Z,97626.59
2018-05-03T16:04:05.933Z,97628.66
2018-05-03T16:06:33.529Z,97632.44
2018-05-03T16:09:01.121Z,97633.41
2018-05-03T16:11:28.745Z,97636.00
2018-05-03T16:13:56.330Z,97631.75
2018-05-03T16:16:23.943Z,97631.37
2018-05-03T16:18:51.616Z,97634.74
2018-05-03T16:21:19.825Z,97634.22
2018-05-03T16:23:47.420Z,97639.38
2018-05-03T16:26:15.014Z,97634.56
2018-05-03T16:28:42.636Z,97642.08
2018-05-03T16:31:10.234Z,97638.46
2018-05-03T16:33:37.869Z,97644.86
2018-05-03T16:36:05.452Z,97650.52
2018-05-03T16:38:33.110Z,97649.64
2018-05-03T16:41:00.726Z,97650.30
2018-05-03T16:43:28.323Z,97654.56
2018-05-03T16:45:55.938Z,97647.88
2018-05-03T16:48:23.528Z,97655.56
2018-05-03T16:50:51.154Z,97655.86
2018-05-03T16:53:18.748Z,97656.97
2018-05-03T16:55:46.334Z,97648.20
2018-05-03T16:58:13.961Z,97659.27
2018-05-03T17:00:41.550Z,97661.95
2018-05-03T17:03:09.302Z,97662.65
2018-05-03T17:05:36.892Z,97661.36
2018-05-03T17:08:04.502Z,97658.09
2018-05-03T17:10:32.124Z,97660.33
2018-05-03T17:12:59.722Z,97660.02
2018-05-03T17:15:27.709Z,97659.56
2018-05-03T17:17:55.305Z,97663.23
2018-05-03T17:20:23.110Z,97669.22
2018-05-03T17:22:50.730Z,97666.90
2018-05-03T17:25:18.319Z,97675.28
2018-05-03T17:27:45.958Z,97680.66
2018-05-03T17:30:13.598Z,97683.66
2018-05-03T17:32:41.254Z,97695.20
2018-05-03T17:35:08.860Z,97703.29
2018-05-03T17:37:36.459Z,97697.61
2018-05-03T17:40:04.144Z,97699.58
2018-05-03T17:42:31.742Z,97693.23
2018-05-03T17:44:59.469Z,97710.52
2018-05-03T17:47:27.067Z,97711.34
2018-05-03T17:49:55.020Z,97717.87
2018-05-03T17:52:22.613Z,97727.46
2018-05-03T17:54:51.125Z,97726.38
2018-05-03T17:57:18.759Z,97729.63
2018-05-03T17:59:46.358Z,97730.78
2018-05-03T18:02:13.980Z,97730.02
2018-05-03T18:04:41.605Z,97736.92
2018-05-03T18:07:09.554Z,97736.71
2018-05-03T18:09:37.149Z,97742.89
2018-05-03T18:12:04.761Z,97745.98
2018-05-03T18:14:32.398Z,97759.67
2018-05-03T18:16:59.994Z,97761.05
2018-05-03T18:19:27.610Z,97770.28
2018-05-03T18:21:55.224Z,97775.52
2018-05-03T18:24:22.868Z,97782.84
2018-05-03T18:26:50.455Z,97784.86
2018-05-03T18:29:18.053Z,97788.51
2018-05-03T18:31:45.686Z,97796.55
2018-05-03T18:34:13.355Z,97796.83
2018-05-03T18:36:41.194Z,97791.39
2018-05-03T18:39:08.800Z,97795.89
2018-05-03T18:41:36.397Z,97805.22
2018-05-03T18:44:04.034Z,97812.80
2018-05-03T18:46:31.656Z,97818.20
2018-05-03T18:48:59.346Z,97821.01
2018-05-03T18:51:27.054Z,97827.09
2018-05-03T18:53:54.682Z,97832.24
2018-05-03T18:56:22.283Z,97839.56
2018-05-03T18:58:49.881Z,97851.52
2018-05-03T19:01:17.586Z,97837.11
2018-05-03T19:03:45.122Z,97842.62
2018-05-03T19:06:12.743Z,97844.10
2018-05-03T19:08:40.335Z,97849.91
2018-05-03T19:11:08.280Z,97851.23
2018-05-03T19:13:35.882Z,97856.53
2018-05-03T19:16:03.476Z,97868.70
2018-05-03T19:18:31.094Z,97866.47
2018-05-03T19:20:58.691Z,97871.36
2018-05-03T19:23:26.312Z,97862.30
2018-05-03T19:25:53.911Z,97865.41
2018-05-03T19:28:21.584Z,97870.08
2018-05-03T19:30:49.163Z,97864.28
2018-05-03T19:33:16.751Z,97870.72
2018-05-03T19:35:44.392Z,97877.62
2018-05-03T19:38:12.007Z,97880.31
2018-05-03T19:40:39.673Z,97879.95
2018-05-03T19:43:07.263Z,97887.16
2018-05-03T19:45:35.267Z,97883.08
2018-05-03T19:48:02.870Z,97886.89
2018-05-03T19:50:30.466Z,97885.88
2018-05-03T19:52:58.091Z,97884.85
2018-05-03T19:55:25.727Z,97888.02
2018-05-03T19:57:53.344Z,97889.34
2018-05-03T20:00:20.951Z,97901.65
2018-05-03T20:02:48.772Z,97895.23
2018-05-03T20:05:16.399Z,97900.58
2018-05-03T20:07:43.994Z,97894.27
2018-05-03T20:10:11.608Z,97893.47
2018-05-03T20:12:39.212Z,97901.41
2018-05-03T20:15:06.832Z,97900.27
2018-05-03T20:17:34.513Z,97907.73
2018-05-03T20:20:02.309Z,97909.70
2018-05-03T20:22:29.898Z,97906.70
2018-05-03T20:24:57.613Z,97912.41
2018-05-03T20:27:25.159Z,97912.20
2018-05-03T20:29:52.754Z,97912.25
2018-05-03T20:32:20.371Z,97917.12
2018-05-03T20:34:47.985Z,97922.90
2018-05-03T20:37:15.625Z,97927.72
2018-05-03T20:39:43.281Z,97926.36
2018-05-03T20:42:11.557Z,97932.16
2018-05-03T20:44:39.181Z,97932.36
2018-05-03T20:47:06.770Z,97938.41
2018-05-03T20:49:34.388Z,97937.09
2018-05-03T20:52:02.078Z,97941.33
2018-05-03T20:54:29.647Z,97940.08
2018-05-03T20:56:57.247Z,97931.27
2018-05-03T20:59:24.839Z,97938.52
2018-05-03T21:01:52.465Z,97936.20
2018-05-03T21:04:20.063Z,97935.24
2018-05-03T21:06:47.720Z,97938.05
2018-05-03T21:09:15.322Z,97947.16
2018-05-03T21:11:43.130Z,97950.02
2018-05-03T21:14:10.729Z,97954.30
2018-05-03T21:16:38.351Z,97953.65
2018-05-03T21:19:05.975Z,97964.88
2018-05-03T21:21:33.571Z,97962.52
2018-05-03T21:24:01.184Z,97955.80
2018-05-03T21:26:28.853Z,97950.30
2018-05-03T21:28:56.657Z,97959.59
2018-05-03T21:31:24.253Z,97957.36
2018-05-03T21:33:51.857Z,97955.74
2018-05-03T21:36:19.489Z,97954.58
2018-05-03T21:38:47.079Z,97954.80
2018-05-03T21:41:14.701Z,97950.36
2018-05-03T21:43:42.320Z,97949.93
2018-05-03T21:46:09.937Z,97953.48
2018-05-03T21:48:37.538Z,97956.08
2018-05-03T21:51:05.413Z,97956.91
2018-05-03T21:53:33.011Z,97955.52
2018-05-03T21:56:00.611Z,97965.03
2018-05-03T21:58:28.230Z,97962.23
2018-05-03T22:00:55.826Z,97955.47
2018-05-03T22:03:23.442Z,97956.73
2018-05-03T22:05:51.038Z,97955.56
2018-05-03T22:08:18.860Z,97950.69
2018-05-03T22:10:46.461Z,97949.37
2018-05-03T22:13:14.047Z,97945.45
2018-05-03T22:15:41.674Z,97952.52
2018-05-03T22:18:09.270Z,97950.73
2018-05-03T22:20:36.890Z,97960.12
2018-05-03T22:23:04.678Z,97953.10
2018-05-03T22:25:32.586Z,97952.83
2018-05-03T22:28:00.179Z,97947.95
2018-05-03T22:30:27.779Z,97953.33
2018-05-03T22:32:55.422Z,97948.85
2018-05-03T22:35:23.018Z,97954.80
2018-05-03T22:37:50.637Z,97953.27
2018-05-03T22:40:18.238Z,97965.13
2018-05-03T22:42:46.031Z,97974.71
2018-05-03T22:45:13.622Z,97978.16
2018-05-03T22:47:41.219Z,97976.33
2018-05-03T22:50:08.852Z,97968.02
2018-05-03T22:52:36.454Z,97970.95
2018-05-03T22:55:04.235Z,97969.92
2018-05-03T22:57:31.842Z,97977.20
2018-05-03T22:59:59.439Z,97971.53
2018-05-03T23:02:27.059Z,97968.75
2018-05-03T23:04:54.662Z,97972.84
2018-05-03T23:07:22.553Z,97971.19
2018-05-03T23:09:50.146Z,97977.55
2018-05-03T23:12:17.749Z,97975.50
2018-05-03T23:14:45.362Z,97976.63
2018-05-03T23:17:12.955Z,97967.23
2018-05-03T23:19:40.575Z,97962.87
2018-05-03T23:22:08.173Z,97961.28
2018-05-03T23:24:35.988Z,97965.89
2018-05-03T23:27:03.578Z,97962.94
2018-05-03T23:29:31.170Z,97961.28
2018-05-03T23:31:58.787Z,97966.10
2018-05-03T23:34:26.394Z,97964.30
2018-05-03T23:36:54.012Z,97965.37
2018-05-03T23:39:21.618Z,97964.83
2018-05-03T23:41:49.519Z,97967.86
2018-05-03T23:44:17.114Z,97964.53
2018-05-03T23:46:44.706Z,97972.11
2018-05-03T23:49:12.333Z,97959.88
2018-05-03T23:51:39.926Z,97955.38
2018-05-03T23:54:07.542Z,97950.13
2018-05-03T23:56:35.143Z,97953.07
2018-05-03T23:59:02.953Z,97949.83
